Time;durP1;ratioP1;P1;durP2;ratioP2;P2;SDS_P1;SDS_P2;PMS_P1;PMS_P2;Temp;Humidity;BMP_temperature;BMP_pressure;BME280_temperature;BME280_humidity;BME280_pressure;Samples;Min_cycle;Max_cycle;Signal;HPM_P1;HPM_P2
2023/07/26 00:00:13;;;;;;;10.63;9.68;;;;;;;;;;5076720;28;20029;-60
2023/07/26 00:02:39;;;;;;;11.95;10.70;;;;;;;;;;5076577;28;20030;-60
2023/07/26 00:05:05;;;;;;;9.98;9.07;;;;;;;;;;5076053;28;20103;-60
2023/07/26 00:07:31;;;;;;;11.77;10.55;;;;;;;;;;5074832;28;20025;-60
2023/07/26 00:09:57;;;;;;;12.20;11.00;;;;;;;;;;5076405;28;20034;-60
2023/07/26 00:12:24;;;;;;;12.15;10.95;;;;;;;;;;5076056;28;20028;-60
2023/07/26 00:14:50;;;;;;;11.73;10.52;;;;;;;;;;5076415;28;20034;-60
2023/07/26 00:17:16;;;;;;;11.23;10.20;;;;;;;;;;5075873;28;20063;-60
2023/07/26 00:19:42;;;;;;;12.43;11.18;;;;;;;;;;5076046;28;20064;-60
2023/07/26 00:22:08;;;;;;;13.52;12.13;;;;;;;;;;5076026;28;20028;-60
2023/07/26 00:24:33;;;;;;;13.43;12.13;;;;;;;;;;5076499;28;20320;-60
2023/07/26 00:26:59;;;;;;;11.57;9.63;;;;;;;;;;5075581;28;20417;-60
2023/07/26 00:29:25;;;;;;;15.02;13.30;;;;;;;;;;5075819;28;20036;-60
2023/07/26 00:31:51;;;;;;;14.65;11.38;;;;;;;;;;5075576;28;20064;-60
2023/07/26 00:34:17;;;;;;;13.68;12.32;;;;;;;;;;5075548;28;20021;-60
2023/07/26 00:36:43;;;;;;;13.55;12.18;;;;;;;;;;5074986;28;20049;-60
2023/07/26 00:39:12;;;;;;;14.25;12.32;;;;;;;;;;5075335;28;20044;-60
2023/07/26 00:41:38;;;;;;;12.45;11.15;;;;;;;;;;5075691;28;20036;-60
2023/07/26 00:44:04;;;;;;;13.88;11.18;;;;;;;;;;5075044;28;20497;-60
2023/07/26 00:46:30;;;;;;;12.48;10.43;;;;;;;;;;5075263;28;20025;-60
2023/07/26 00:48:58;;;;;;;13.85;11.40;;;;;;;;;;5075278;28;20072;-60
2023/07/26 00:51:24;;;;;;;12.18;11.07;;;;;;;;;;5075222;28;20074;-60
2023/07/26 00:53:50;;;;;;;12.98;10.70;;;;;;;;;;5075479;28;20028;-60
2023/07/26 00:56:16;;;;;;;11.70;10.23;;;;;;;;;;5075057;28;20458;-60
2023/07/26 00:58:42;;;;;;;11.57;10.45;;;;;;;;;;5075514;28;20039;-60
2023/07/26 01:01:08;;;;;;;13.13;11.75;;;;;;;;;;5074764;28;20040;-60
2023/07/26 01:03:34;;;;;;;11.95;9.85;;;;;;;;;;5074767;28;20029;-60
2023/07/26 01:06:03;;;;;;;14.65;9.45;;;;;;;;;;5075434;28;20021;-60
2023/07/26 01:08:54;;;;;;;10.93;9.93;;;;;;;;;;5074932;28;20104;-60
2023/07/26 01:11:20;;;;;;;11.00;9.88;;;;;;;;;;5075449;28;20028;-61
2023/07/26 01:13:54;;;;;;;10.98;9.95;;;;;;;;;;5074715;28;20039;-60
2023/07/26 01:16:20;;;;;;;11.25;10.15;;;;;;;;;;5075189;28;20093;-60
2023/07/26 01:18:46;;;;;;;10.73;9.65;;;;;;;;;;5075091;28;20040;-60
2023/07/26 01:21:12;;;;;;;10.55;9.55;;;;;;;;;;5074566;28;20029;-60
2023/07/26 01:23:39;;;;;;;8.90;7.97;;;;;;;;;;5074477;28;20485;-60
2023/07/26 01:26:07;;;;;;;8.48;7.63;;;;;;;;;;5075211;28;20028;-60
2023/07/26 01:28:33;;;;;;;10.10;8.88;;;;;;;;;;5074552;28;20029;-60
2023/07/26 01:31:01;;;;;;;9.60;8.60;;;;;;;;;;5074555;28;20082;-60
2023/07/26 01:33:28;;;;;;;11.88;8.45;;;;;;;;;;5073973;28;20462;-60
2023/07/26 01:35:54;;;;;;;9.15;8.25;;;;;;;;;;5074011;28;20028;-61
2023/07/26 01:38:21;;;;;;;10.55;8.73;;;;;;;;;;5074440;28;20043;-60
2023/07/26 01:40:47;;;;;;;8.60;7.75;;;;;;;;;;5074657;28;20373;-60
2023/07/26 01:43:13;;;;;;;8.60;7.72;;;;;;;;;;5074620;28;20028;-60
2023/07/26 01:45:39;;;;;;;8.15;7.20;;;;;;;;;;5074046;28;20024;-60
2023/07/26 01:48:05;;;;;;;9.13;7.68;;;;;;;;;;5074037;28;20039;-61
2023/07/26 01:50:31;;;;;;;8.27;7.43;;;;;;;;;;5074146;28;20409;-60
2023/07/26 01:52:57;;;;;;;7.80;7.07;;;;;;;;;;5074200;28;20025;-61
2023/07/26 01:55:23;;;;;;;8.93;6.95;;;;;;;;;;5073837;28;20021;-60
2023/07/26 01:57:49;;;;;;;6.85;6.18;;;;;;;;;;5073784;28;20039;-60
2023/07/26 02:00:15;;;;;;;6.93;6.25;;;;;;;;;;5073887;28;20032;-60
2023/07/26 02:02:41;;;;;;;7.45;6.55;;;;;;;;;;5074353;28;20048;-60
2023/07/26 02:05:07;;;;;;;8.60;6.75;;;;;;;;;;5073896;28;20113;-60
2023/07/26 02:07:33;;;;;;;7.28;5.85;;;;;;;;;;5073808;28;20370;-60
2023/07/26 02:09:59;;;;;;;6.63;5.75;;;;;;;;;;5074378;28;20043;-60
2023/07/26 02:12:25;;;;;;;6.20;5.60;;;;;;;;;;5073678;28;20016;-60
2023/07/26 02:14:51;;;;;;;9.02;5.05;;;;;;;;;;5073322;28;20099;-60
2023/07/26 02:17:17;;;;;;;7.47;5.45;;;;;;;;;;5073604;28;20020;-60
2023/07/26 02:19:43;;;;;;;6.10;5.50;;;;;;;;;;5073845;28;20031;-60
2023/07/26 02:22:09;;;;;;;5.38;4.88;;;;;;;;;;5073269;28;20028;-60
2023/07/26 02:24:35;;;;;;;5.35;4.78;;;;;;;;;;5073510;28;20020;-60
2023/07/26 02:27:01;;;;;;;5.80;4.47;;;;;;;;;;5073530;28;20024;-60
2023/07/26 02:29:27;;;;;;;4.88;4.38;;;;;;;;;;5074000;28;20070;-60
2023/07/26 02:31:53;;;;;;;5.43;4.75;;;;;;;;;;5072877;28;20132;-60
2023/07/26 02:34:18;;;;;;;6.30;5.20;;;;;;;;;;5073957;28;20145;-60
2023/07/26 02:36:44;;;;;;;5.85;5.30;;;;;;;;;;5073866;28;20485;-60
2023/07/26 02:39:10;;;;;;;5.13;4.55;;;;;;;;;;5073363;28;20462;-60
2023/07/26 02:41:36;;;;;;;6.28;4.97;;;;;;;;;;5073688;28;20029;-60
2023/07/26 02:44:02;;;;;;;5.82;5.32;;;;;;;;;;5073099;28;20355;-60
2023/07/26 02:46:28;;;;;;;6.05;5.30;;;;;;;;;;5073617;28;20442;-60
2023/07/26 02:48:54;;;;;;;6.40;5.80;;;;;;;;;;5073873;28;20029;-60
2023/07/26 02:51:20;;;;;;;6.00;5.40;;;;;;;;;;5073312;28;20044;-60
2023/07/26 02:53:46;;;;;;;7.05;5.93;;;;;;;;;;5073221;28;20079;-60
2023/07/26 02:56:12;;;;;;;6.38;5.22;;;;;;;;;;5073257;28;20162;-60
2023/07/26 02:58:38;;;;;;;6.47;5.53;;;;;;;;;;5073113;28;20098;-60
2023/07/26 03:01:04;;;;;;;5.93;5.43;;;;;;;;;;5072864;28;20120;-60
2023/07/26 03:03:29;;;;;;;6.43;5.50;;;;;;;;;;5073115;28;20020;-59
2023/07/26 03:05:58;;;;;;;5.78;5.15;;;;;;;;;;5073370;28;20501;-60
2023/07/26 03:08:24;;;;;;;6.68;5.97;;;;;;;;;;5073426;28;20033;-60
2023/07/26 03:10:53;;;;;;;7.40;5.50;;;;;;;;;;5073033;28;20107;-60
2023/07/26 03:13:19;;;;;;;5.38;4.88;;;;;;;;;;5072955;28;20031;-59
2023/07/26 03:15:45;;;;;;;6.80;5.57;;;;;;;;;;5072964;28;20025;-59
2023/07/26 03:18:11;;;;;;;6.88;5.47;;;;;;;;;;5073392;28;20136;-60
2023/07/26 03:20:37;;;;;;;5.95;5.35;;;;;;;;;;5073728;28;20164;-60
2023/07/26 03:23:03;;;;;;;7.72;6.03;;;;;;;;;;5073404;28;20053;-60
2023/07/26 03:25:29;;;;;;;7.57;5.53;;;;;;;;;;5072595;28;20469;-60
2023/07/26 03:27:55;;;;;;;5.93;5.38;;;;;;;;;;5072930;28;20382;-60
2023/07/26 03:30:21;;;;;;;7.20;6.05;;;;;;;;;;5073349;28;20458;-60
2023/07/26 03:32:47;;;;;;;6.10;5.50;;;;;;;;;;5072702;28;20460;-60
2023/07/26 03:35:13;;;;;;;7.53;5.32;;;;;;;;;;5073408;28;20434;-60
2023/07/26 03:37:39;;;;;;;5.38;4.88;;;;;;;;;;5072683;28;20475;-60
2023/07/26 03:40:05;;;;;;;6.53;5.32;;;;;;;;;;5073218;28;20510;-60
2023/07/26 03:42:31;;;;;;;4.72;4.30;;;;;;;;;;5074713;28;20113;-59
2023/07/26 03:44:57;;;;;;;6.57;5.68;;;;;;;;;;5076841;28;20060;-60
2023/07/26 03:47:23;;;;;;;6.20;5.50;;;;;;;;;;5077063;28;20028;-60
2023/07/26 03:49:49;;;;;;;5.35;4.20;;;;;;;;;;5076997;28;20024;-60
2023/07/26 03:52:15;;;;;;;6.05;5.45;;;;;;;;;;5076098;28;20021;-60
2023/07/26 03:54:40;;;;;;;6.45;4.78;;;;;;;;;;5077078;28;20078;-60
2023/07/26 03:57:07;;;;;;;5.07;4.32;;;;;;;;;;5076262;28;20355;-60
2023/07/26 03:59:33;;;;;;;8.02;4.78;;;;;;;;;;5076263;28;20033;-60
2023/07/26 04:01:59;;;;;;;6.18;5.00;;;;;;;;;;5076486;28;20363;-60
2023/07/26 04:04:25;;;;;;;4.80;4.15;;;;;;;;;;5076410;28;20036;-60
2023/07/26 04:06:51;;;;;;;5.13;4.63;;;;;;;;;;5076636;28;20032;-60
2023/07/26 04:09:17;;;;;;;9.85;5.43;;;;;;;;;;5076570;28;20167;-60
2023/07/26 04:11:43;;;;;;;5.63;4.93;;;;;;;;;;5076549;28;20017;-60
2023/07/26 04:14:09;;;;;;;6.15;5.00;;;;;;;;;;5076396;28;20035;-60
2023/07/26 04:16:35;;;;;;;7.18;4.70;;;;;;;;;;5075727;28;20020;-60
2023/07/26 04:19:01;;;;;;;5.90;4.90;;;;;;;;;;5076264;28;20039;-60
2023/07/26 04:21:27;;;;;;;5.03;4.10;;;;;;;;;;5076357;28;20078;-60
2023/07/26 04:23:53;;;;;;;5.72;5.13;;;;;;;;;;5076204;28;20036;-60
2023/07/26 04:26:19;;;;;;;5.65;5.05;;;;;;;;;;5075459;28;20020;-60
2023/07/26 04:28:45;;;;;;;6.82;4.63;;;;;;;;;;5075778;28;20111;-60
2023/07/26 04:31:11;;;;;;;5.88;5.00;;;;;;;;;;5075233;28;20082;-60
2023/07/26 04:33:37;;;;;;;7.70;5.15;;;;;;;;;;5075625;28;20370;-60
2023/07/26 04:36:03;;;;;;;4.75;4.28;;;;;;;;;;5075506;28;20083;-60
2023/07/26 04:38:29;;;;;;;5.35;4.28;;;;;;;;;;5075805;28;20033;-60
2023/07/26 04:40:55;;;;;;;6.00;5.28;;;;;;;;;;5075367;28;20055;-60
2023/07/26 04:43:21;;;;;;;5.82;4.88;;;;;;;;;;5075611;28;20060;-60
2023/07/26 04:45:50;;;;;;;5.97;5.03;;;;;;;;;;5075394;28;20021;-60
2023/07/26 04:48:17;;;;;;;5.65;5.15;;;;;;;;;;5076186;28;20121;-60
2023/07/26 04:50:44;;;;;;;6.63;5.20;;;;;;;;;;5075795;28;20025;-60
2023/07/26 04:53:10;;;;;;;6.63;6.00;;;;;;;;;;5074666;28;20024;-60
2023/07/26 04:55:46;;;;;;;5.88;5.32;;;;;;;;;;5075978;28;20038;-60
2023/07/26 04:58:12;;;;;;;5.63;5.13;;;;;;;;;;5074945;28;20474;-60
2023/07/26 05:00:41;;;;;;;7.68;5.25;;;;;;;;;;5075727;28;20024;-60
2023/07/26 05:03:08;;;;;;;5.22;4.72;;;;;;;;;;5075067;28;20025;-60
2023/07/26 05:05:34;;;;;;;5.80;5.03;;;;;;;;;;5075030;28;20052;-60
2023/07/26 05:08:01;;;;;;;6.00;5.50;;;;;;;;;;5075115;28;20028;-60
2023/07/26 05:10:27;;;;;;;6.55;5.93;;;;;;;;;;5074854;28;20024;-60
2023/07/26 05:12:53;;;;;;;10.23;5.80;;;;;;;;;;5075365;28;20473;-60
2023/07/26 05:15:19;;;;;;;5.75;5.25;;;;;;;;;;5074629;28;20450;-60
2023/07/26 05:17:45;;;;;;;9.70;5.63;;;;;;;;;;5074388;28;20335;-60
2023/07/26 05:20:11;;;;;;;6.00;5.50;;;;;;;;;;5075225;28;20032;-60
2023/07/26 05:22:37;;;;;;;5.47;4.97;;;;;;;;;;5074670;28;20028;-60
2023/07/26 05:25:03;;;;;;;4.35;3.95;;;;;;;;;;5075449;28;20036;-60
2023/07/26 05:27:29;;;;;;;6.70;4.82;;;;;;;;;;5074608;28;20025;-60
2023/07/26 05:29:57;;;;;;;6.28;4.88;;;;;;;;;;5074573;28;20108;-60
2023/07/26 05:32:23;;;;;;;6.18;5.57;;;;;;;;;;5075149;28;20035;-60
2023/07/26 05:34:49;;;;;;;5.90;4.70;;;;;;;;;;5074423;28;20413;-60
2023/07/26 05:37:15;;;;;;;7.43;5.05;;;;;;;;;;5074351;28;20053;-60
2023/07/26 05:39:41;;;;;;;4.65;4.25;;;;;;;;;;5075002;28;20032;-60
2023/07/26 05:42:07;;;;;;;5.47;4.65;;;;;;;;;;5074276;28;20102;-60
2023/07/26 05:44:33;;;;;;;4.93;4.25;;;;;;;;;;5075047;28;20427;-60
2023/07/26 05:46:59;;;;;;;5.20;4.38;;;;;;;;;;5074265;28;20036;-60
2023/07/26 05:49:25;;;;;;;5.05;4.55;;;;;;;;;;5074196;28;20028;-60
2023/07/26 05:51:51;;;;;;;4.18;3.78;;;;;;;;;;5074616;28;20116;-60
2023/07/26 05:54:17;;;;;;;5.57;5.07;;;;;;;;;;5074123;28;20031;-60
2023/07/26 05:56:43;;;;;;;5.82;5.32;;;;;;;;;;5074224;28;20025;-60
2023/07/26 05:59:08;;;;;;;8.15;5.35;;;;;;;;;;5073961;28;20036;-60
2023/07/26 06:01:34;;;;;;;5.43;4.93;;;;;;;;;;5074212;28;20044;-60
2023/07/26 06:04:00;;;;;;;5.60;4.65;;;;;;;;;;5073951;28;20074;-60
2023/07/26 06:06:26;;;;;;;6.13;5.53;;;;;;;;;;5073319;28;20025;-60
2023/07/26 06:08:52;;;;;;;5.57;4.70;;;;;;;;;;5074122;28;20062;-60
2023/07/26 06:11:19;;;;;;;5.90;4.85;;;;;;;;;;5073696;28;20043;-60
2023/07/26 06:13:44;;;;;;;5.18;4.63;;;;;;;;;;5074253;28;20029;-60
2023/07/26 06:16:10;;;;;;;5.85;5.20;;;;;;;;;;5074261;28;20038;-60
2023/07/26 06:18:36;;;;;;;5.60;5.10;;;;;;;;;;5074352;28;20513;-60
2023/07/26 06:21:04;;;;;;;5.93;4.53;;;;;;;;;;5073769;28;20029;-60
2023/07/26 06:23:30;;;;;;;8.25;5.20;;;;;;;;;;5073728;28;20035;-60
2023/07/26 06:25:56;;;;;;;5.90;5.35;;;;;;;;;;5073670;28;20107;-60
2023/07/26 06:28:22;;;;;;;7.30;5.72;;;;;;;;;;5073562;28;20025;-60
2023/07/26 06:30:48;;;;;;;5.82;5.00;;;;;;;;;;5073585;28;20025;-60
2023/07/26 06:33:14;;;;;;;5.97;5.22;;;;;;;;;;5074189;28;20112;-60
2023/07/26 06:35:40;;;;;;;5.38;4.88;;;;;;;;;;5073480;28;20075;-60
2023/07/26 06:38:08;;;;;;;4.82;4.32;;;;;;;;;;5074048;28;20059;-60
2023/07/26 06:40:34;;;;;;;4.47;3.80;;;;;;;;;;5073932;28;20157;-60
2023/07/26 06:43:01;;;;;;;4.85;4.35;;;;;;;;;;5073979;28;20052;-60
2023/07/26 06:45:26;;;;;;;6.43;4.65;;;;;;;;;;5055195;28;20031;-60
2023/07/26 06:47:54;;;;;;;5.15;3.70;;;;;;;;;;5073442;28;20025;-60
2023/07/26 06:50:20;;;;;;;4.68;3.45;;;;;;;;;;5073433;28;20403;-60
2023/07/26 06:52:46;;;;;;;6.45;4.70;;;;;;;;;;5074117;28;20039;-60
2023/07/26 06:55:12;;;;;;;5.18;4.28;;;;;;;;;;5073633;28;20439;-60
2023/07/26 06:57:38;;;;;;;4.13;3.75;;;;;;;;;;5073828;28;20021;-60
2023/07/26 07:00:06;;;;;;;5.22;4.13;;;;;;;;;;5073571;28;20458;-60
2023/07/26 07:02:32;;;;;;;5.30;4.05;;;;;;;;;;5073320;28;20028;-60
2023/07/26 07:04:58;;;;;;;9.43;4.10;;;;;;;;;;5073247;28;20382;-60
2023/07/26 07:07:24;;;;;;;3.95;3.30;;;;;;;;;;5073124;28;20492;-60
2023/07/26 07:09:50;;;;;;;4.63;4.22;;;;;;;;;;5073479;28;20144;-60
2023/07/26 07:12:16;;;;;;;3.80;3.40;;;;;;;;;;5073239;28;20032;-60
2023/07/26 07:14:42;;;;;;;4.13;3.33;;;;;;;;;;5073569;28;20032;-59
2023/07/26 07:17:08;;;;;;;4.25;3.85;;;;;;;;;;5075189;28;20033;-59
2023/07/26 07:19:34;;;;;;;4.25;3.75;;;;;;;;;;5077525;28;20412;-59
2023/07/26 07:22:03;;;;;;;4.32;3.22;;;;;;;;;;5077074;28;20024;-59
2023/07/26 07:24:29;;;;;;;4.20;3.80;;;;;;;;;;5077300;28;20549;-59
2023/07/26 07:26:55;;;;;;;5.68;4.40;;;;;;;;;;5077549;28;20060;-59
2023/07/26 07:29:21;;;;;;;4.55;4.05;;;;;;;;;;5077631;28;20031;-59
2023/07/26 07:31:47;;;;;;;4.15;3.45;;;;;;;;;;5077014;28;20028;-59
2023/07/26 07:34:13;;;;;;;5.45;3.78;;;;;;;;;;5076921;28;20103;-59
2023/07/26 07:36:39;;;;;;;5.78;4.07;;;;;;;;;;5076626;28;20053;-59
2023/07/26 07:39:07;;;;;;;6.13;4.53;;;;;;;;;;5076487;28;20457;-59
2023/07/26 07:41:33;;;;;;;5.28;4.78;;;;;;;;;;5077310;28;20028;-59
2023/07/26 07:43:59;;;;;;;6.25;3.95;;;;;;;;;;5076631;28;20047;-59
2023/07/26 07:46:28;;;;;;;7.68;4.40;;;;;;;;;;5077114;28;20117;-59
2023/07/26 07:48:54;;;;;;;4.78;3.63;;;;;;;;;;5077258;28;20033;-59
2023/07/26 07:51:20;;;;;;;5.00;4.40;;;;;;;;;;5076237;28;20017;-59
2023/07/26 07:53:47;;;;;;;5.18;3.97;;;;;;;;;;5076943;28;20024;-59
2023/07/26 07:56:13;;;;;;;7.22;4.43;;;;;;;;;;5076718;28;20052;-59
2023/07/26 07:58:39;;;;;;;5.15;4.65;;;;;;;;;;5076941;28;20445;-59
2023/07/26 08:01:05;;;;;;;4.95;4.30;;;;;;;;;;5076364;28;20029;-59
2023/07/26 08:03:31;;;;;;;4.72;3.88;;;;;;;;;;5076414;28;20021;-59
2023/07/26 08:05:57;;;;;;;4.38;3.95;;;;;;;;;;5076216;28;20082;-59
2023/07/26 08:08:23;;;;;;;4.93;4.43;;;;;;;;;;5076137;28;20024;-59
2023/07/26 08:10:49;;;;;;;5.88;4.25;;;;;;;;;;5075912;28;20028;-59
2023/07/26 08:13:15;;;;;;;4.93;4.50;;;;;;;;;;5076172;28;20032;-59
2023/07/26 08:15:41;;;;;;;5.43;4.57;;;;;;;;;;5076365;28;20469;-59
2023/07/26 08:18:08;;;;;;;4.25;3.83;;;;;;;;;;5076834;28;20123;-59
2023/07/26 08:20:34;;;;;;;4.55;4.10;;;;;;;;;;5076938;28;20363;-59
2023/07/26 08:23:01;;;;;;;4.32;3.92;;;;;;;;;;5075834;28;20465;-59
2023/07/26 08:25:26;;;;;;;4.38;3.97;;;;;;;;;;5075944;28;20025;-59
2023/07/26 08:27:52;;;;;;;8.90;4.93;;;;;;;;;;5075713;28;20442;-59
2023/07/26 08:30:18;;;;;;;4.30;3.65;;;;;;;;;;5076222;28;20024;-59
2023/07/26 08:32:44;;;;;;;4.43;3.30;;;;;;;;;;5075883;28;20021;-59
2023/07/26 08:35:10;;;;;;;5.85;3.47;;;;;;;;;;5076351;28;20373;-59
2023/07/26 08:37:36;;;;;;;3.92;3.42;;;;;;;;;;5076211;28;20053;-59
2023/07/26 08:40:02;;;;;;;3.67;2.83;;;;;;;;;;5076249;28;20047;-59
2023/07/26 08:42:28;;;;;;;2.90;2.40;;;;;;;;;;5075718;28;20032;-59
2023/07/26 08:44:54;;;;;;;2.50;1.90;;;;;;;;;;5075606;28;20055;-59
2023/07/26 08:47:22;;;;;;;2.08;1.58;;;;;;;;;;5075508;28;20028;-59
2023/07/26 08:49:49;;;;;;;2.20;1.50;;;;;;;;;;5076051;28;20028;-59
2023/07/26 08:52:16;;;;;;;2.20;1.63;;;;;;;;;;5075233;28;20394;-59
2023/07/26 08:54:43;;;;;;;2.85;1.33;;;;;;;;;;5075060;28;20029;-59
2023/07/26 08:57:09;;;;;;;1.35;0.80;;;;;;;;;;5075869;28;20024;-59
2023/07/26 08:59:35;;;;;;;1.80;1.10;;;;;;;;;;5075608;28;20507;-59
2023/07/26 09:02:03;;;;;;;1.88;1.00;;;;;;;;;;5076114;28;20115;-59
2023/07/26 09:04:33;;;;;;;2.22;1.10;;;;;;;;;;5075224;28;20025;-59
2023/07/26 09:07:03;;;;;;;1.50;0.93;;;;;;;;;;5075449;28;20032;-59
2023/07/26 09:09:29;;;;;;;1.10;0.60;;;;;;;;;;5075208;28;20067;-59
2023/07/26 09:11:55;;;;;;;2.05;1.23;;;;;;;;;;5075638;28;20035;-59
2023/07/26 09:14:26;;;;;;;2.20;1.00;;;;;;;;;;5075055;28;20025;-59
2023/07/26 09:16:55;;;;;;;2.42;1.15;;;;;;;;;;5075289;28;20028;-59
2023/07/26 09:19:27;;;;;;;3.25;1.38;;;;;;;;;;5075201;28;20459;-59
2023/07/26 09:21:56;;;;;;;1.48;0.80;;;;;;;;;;5075295;28;20020;-59
2023/07/26 09:24:28;;;;;;;1.40;0.75;;;;;;;;;;5074857;28;20047;-59
2023/07/26 09:27:02;;;;;;;1.10;0.63;;;;;;;;;;5074411;28;20060;-59
2023/07/26 09:29:28;;;;;;;1.67;0.70;;;;;;;;;;5074621;28;20025;-59
2023/07/26 09:31:54;;;;;;;1.63;0.80;;;;;;;;;;5074868;28;20031;-59
2023/07/26 09:34:20;;;;;;;1.88;1.00;;;;;;;;;;5075425;28;20021;-59
2023/07/26 09:36:50;;;;;;;0.88;0.40;;;;;;;;;;5074558;28;20131;-59
2023/07/26 09:39:16;;;;;;;;;;;;;;;;;;5075618;28;20397;-59
2023/07/26 09:41:45;;;;;;;6.13;1.20;;;;;;;;;;5075016;28;19911;-59
2023/07/26 09:44:17;;;;;;;1.60;1.02;;;;;;;;;;5074900;28;20033;-59
2023/07/26 09:46:49;;;;;;;2.08;1.27;;;;;;;;;;5074323;28;20032;-59
2023/07/26 09:49:16;;;;;;;1.40;0.80;;;;;;;;;;5074916;28;20051;-59
2023/07/26 09:51:42;;;;;;;1.65;1.05;;;;;;;;;;5074542;28;20025;-59
2023/07/26 09:54:12;;;;;;;1.80;1.00;;;;;;;;;;5074196;28;20020;-59
2023/07/26 09:56:40;;;;;;;1.27;0.65;;;;;;;;;;5073837;28;20029;-59
2023/07/26 09:59:10;;;;;;;12.23;2.80;;;;;;;;;;5074472;28;20036;-59
2023/07/26 10:01:39;;;;;;;1.60;0.80;;;;;;;;;;5074088;28;20081;-59
2023/07/26 10:04:05;;;;;;;1.90;1.00;;;;;;;;;;5073783;28;20377;-59
2023/07/26 10:06:33;;;;;;;2.17;0.70;;;;;;;;;;5074807;28;20025;-59
2023/07/26 10:09:00;;;;;;;1.90;1.10;;;;;;;;;;5073628;28;20474;-59
2023/07/26 10:11:27;;;;;;;1.92;1.13;;;;;;;;;;5073440;28;20028;-59
2023/07/26 10:13:54;;;;;;;1.92;1.33;;;;;;;;;;5073878;28;20052;-59
2023/07/26 10:16:20;;;;;;;2.10;1.40;;;;;;;;;;5073771;28;20047;-59
2023/07/26 10:18:47;;;;;;;1.42;0.85;;;;;;;;;;5074310;28;20033;-59
2023/07/26 10:21:14;;;;;;;1.65;1.08;;;;;;;;;;5073747;28;20511;-59
2023/07/26 10:23:42;;;;;;;3.42;1.73;;;;;;;;;;5073734;28;20020;-59
2023/07/26 10:26:09;;;;;;;1.65;1.13;;;;;;;;;;5073445;28;20025;-59
2023/07/26 10:28:37;;;;;;;1.45;0.95;;;;;;;;;;5073973;28;20386;-59
2023/07/26 10:31:04;;;;;;;1.38;0.77;;;;;;;;;;5074503;28;20032;-59
2023/07/26 10:33:30;;;;;;;1.70;1.00;;;;;;;;;;5074006;28;20024;-59
2023/07/26 10:35:56;;;;;;;1.55;0.90;;;;;;;;;;5073399;28;20093;-59
2023/07/26 10:38:22;;;;;;;2.20;1.20;;;;;;;;;;5073951;28;20082;-59
2023/07/26 10:40:48;;;;;;;1.70;1.20;;;;;;;;;;5073576;28;20402;-59
2023/07/26 10:43:20;;;;;;;1.77;1.05;;;;;;;;;;5073456;28;20025;-59
2023/07/26 10:45:47;;;;;;;1.80;0.90;;;;;;;;;;5073751;28;20429;-58
2023/07/26 10:48:31;;;;;;;1.33;0.82;;;;;;;;;;5073430;28;20059;-59
2023/07/26 10:50:58;;;;;;;1.95;1.20;;;;;;;;;;5073807;28;20024;-59
2023/07/26 10:53:30;;;;;;;2.45;1.38;;;;;;;;;;5073439;28;20489;-59
2023/07/26 10:56:06;;;;;;;1.83;1.13;;;;;;;;;;5073359;28;20035;-58
2023/07/26 10:58:32;;;;;;;1.95;1.10;;;;;;;;;;5073137;28;20032;-59
2023/07/26 11:01:02;;;;;;;2.05;1.20;;;;;;;;;;5073292;28;20031;-60
2023/07/26 11:03:28;;;;;;;;;;;;;;;;;;5074301;28;20398;-60
2023/07/26 11:05:55;;;;;;;1.80;0.93;;;;;;;;;;5073220;28;19911;-61
2023/07/26 11:08:22;;;;;;;2.65;1.33;;;;;;;;;;5073036;28;20412;-60
2023/07/26 11:10:51;;;;;;;3.35;1.50;;;;;;;;;;5072984;28;20025;-60
2023/07/26 11:13:26;;;;;;;2.13;1.10;;;;;;;;;;5073240;28;20032;-60
2023/07/26 11:15:52;;;;;;;1.67;1.10;;;;;;;;;;5073563;28;20036;-60
2023/07/26 11:18:19;;;;;;;3.53;1.20;;;;;;;;;;5073055;28;20094;-60
2023/07/26 11:20:47;;;;;;;1.52;0.95;;;;;;;;;;5072999;28;20107;-60
2023/07/26 11:23:17;;;;;;;1.38;0.90;;;;;;;;;;5073195;28;20024;-58
2023/07/26 11:25:43;;;;;;;1.92;1.30;;;;;;;;;;5072896;28;20025;-58
2023/07/26 11:28:09;;;;;;;2.47;1.05;;;;;;;;;;5073212;28;20036;-58
2023/07/26 11:30:35;;;;;;;1.67;1.10;;;;;;;;;;5072881;28;20130;-58
2023/07/26 11:33:01;;;;;;;2.25;1.00;;;;;;;;;;5073000;28;20096;-58
2023/07/26 11:35:38;;;;;;;1.52;1.10;;;;;;;;;;5072835;28;20024;-59
2023/07/26 11:38:03;;;;;;;2.25;1.40;;;;;;;;;;5074139;28;20075;-59
2023/07/26 11:40:30;;;;;;;2.00;1.15;;;;;;;;;;5073556;28;20481;-59
2023/07/26 11:42:57;;;;;;;2.67;1.55;;;;;;;;;;5072664;28;20025;-59
2023/07/26 11:45:23;;;;;;;2.30;1.40;;;;;;;;;;5073537;28;20020;-59
2023/07/26 11:47:50;;;;;;;2.75;1.48;;;;;;;;;;5073760;28;20024;-59
2023/07/26 11:50:20;;;;;;;1.92;0.90;;;;;;;;;;5073469;28;20021;-59
2023/07/26 11:53:02;;;;;;;1.60;0.98;;;;;;;;;;5073353;28;20050;-59
2023/07/26 11:55:28;;;;;;;2.00;1.00;;;;;;;;;;5073626;28;20328;-59
2023/07/26 11:57:54;;;;;;;2.53;1.30;;;;;;;;;;5072684;28;20040;-59
2023/07/26 12:00:20;;;;;;;2.53;1.42;;;;;;;;;;5073130;28;20033;-59
2023/07/26 12:02:46;;;;;;;2.33;1.27;;;;;;;;;;5072753;28;20102;-59
2023/07/26 12:05:15;;;;;;;2.58;1.63;;;;;;;;;;5075701;28;20063;-59
2023/07/26 12:07:54;;;;;;;3.30;1.95;;;;;;;;;;5076327;28;20102;-59
2023/07/26 12:10:34;;;;;;;2.72;1.70;;;;;;;;;;5076349;28;20355;-59
2023/07/26 12:13:00;;;;;;;3.15;1.30;;;;;;;;;;5076255;28;20058;-59
2023/07/26 12:15:27;;;;;;;2.95;1.52;;;;;;;;;;5076171;28;20497;-59
2023/07/26 12:17:55;;;;;;;2.50;1.48;;;;;;;;;;5076046;28;20107;-59
2023/07/26 12:20:25;;;;;;;3.83;1.98;;;;;;;;;;5076605;28;20029;-59
2023/07/26 12:22:52;;;;;;;2.22;1.10;;;;;;;;;;5075930;28;20028;-59
2023/07/26 12:25:19;;;;;;;2.80;1.52;;;;;;;;;;5075983;28;20043;-59
2023/07/26 12:27:45;;;;;;;2.22;1.42;;;;;;;;;;5076107;28;20024;-59
2023/07/26 12:30:14;;;;;;;2.22;1.48;;;;;;;;;;5076436;28;20028;-59
2023/07/26 12:32:40;;;;;;;2.15;1.40;;;;;;;;;;5075768;28;20025;-59
2023/07/26 12:35:22;;;;;;;2.92;1.67;;;;;;;;;;5075483;28;20023;-59
2023/07/26 12:37:52;;;;;;;2.25;1.33;;;;;;;;;;5075471;28;20059;-59
2023/07/26 12:40:19;;;;;;;2.90;1.58;;;;;;;;;;5075960;28;20033;-59
2023/07/26 12:42:45;;;;;;;2.70;1.70;;;;;;;;;;5075387;28;20052;-59
2023/07/26 12:45:13;;;;;;;2.28;1.20;;;;;;;;;;5075565;28;20021;-59
2023/07/26 12:47:39;;;;;;;2.25;1.30;;;;;;;;;;5075518;28;20105;-59
2023/07/26 12:50:06;;;;;;;3.67;1.35;;;;;;;;;;5075976;28;20071;-59
2023/07/26 12:52:32;;;;;;;2.67;1.65;;;;;;;;;;5075922;28;20120;-59
2023/07/26 12:54:58;;;;;;;2.63;1.70;;;;;;;;;;5075428;28;20020;-59
2023/07/26 12:57:24;;;;;;;2.10;1.15;;;;;;;;;;5075326;28;20107;-59
2023/07/26 12:59:49;;;;;;;2.65;1.40;;;;;;;;;;5076005;28;20284;-59
2023/07/26 13:02:15;;;;;;;3.08;1.85;;;;;;;;;;5074978;28;20490;-59
2023/07/26 13:04:41;;;;;;;2.72;1.13;;;;;;;;;;5075431;28;20367;-59
2023/07/26 13:07:07;;;;;;;2.47;1.23;;;;;;;;;;5074733;28;20023;-59
2023/07/26 13:09:33;;;;;;;2.95;1.38;;;;;;;;;;5075197;28;20039;-59
2023/07/26 13:11:59;;;;;;;4.13;1.95;;;;;;;;;;5075622;28;20021;-59
2023/07/26 13:14:25;;;;;;;2.30;1.52;;;;;;;;;;5074275;28;20048;-59
2023/07/26 13:16:51;;;;;;;3.03;1.85;;;;;;;;;;5075083;28;20121;-59
2023/07/26 13:19:17;;;;;;;3.10;1.88;;;;;;;;;;5074982;28;20347;-59
2023/07/26 13:21:43;;;;;;;2.90;1.50;;;;;;;;;;5075634;28;20028;-59
2023/07/26 13:24:12;;;;;;;2.20;1.40;;;;;;;;;;5074540;28;20463;-59
2023/07/26 13:26:38;;;;;;;2.50;1.58;;;;;;;;;;5074359;28;20450;-59
2023/07/26 13:29:04;;;;;;;3.10;1.70;;;;;;;;;;5074783;28;20027;-59
2023/07/26 13:31:31;;;;;;;3.17;1.90;;;;;;;;;;5075139;28;20082;-59
2023/07/26 13:33:57;;;;;;;3.65;2.22;;;;;;;;;;5074958;28;20366;-59
2023/07/26 13:36:23;;;;;;;2.17;1.48;;;;;;;;;;5074472;28;20036;-59
2023/07/26 13:38:49;;;;;;;1.92;1.30;;;;;;;;;;5074680;28;20021;-59
2023/07/26 13:41:15;;;;;;;4.20;2.22;;;;;;;;;;5074961;28;20032;-59
2023/07/26 13:43:41;;;;;;;3.10;1.65;;;;;;;;;;5074130;28;20032;-59
2023/07/26 13:46:07;;;;;;;2.50;1.40;;;;;;;;;;5074818;28;20021;-59
2023/07/26 13:48:33;;;;;;;3.58;1.63;;;;;;;;;;5074455;28;20024;-59
2023/07/26 13:50:59;;;;;;;3.35;1.88;;;;;;;;;;5074769;28;20028;-59
2023/07/26 13:53:25;;;;;;;4.20;1.85;;;;;;;;;;5074355;28;20082;-59
2023/07/26 13:55:51;;;;;;;2.70;1.65;;;;;;;;;;5074094;28;20049;-59
2023/07/26 13:58:17;;;;;;;1.88;1.20;;;;;;;;;;5073806;28;20406;-59
2023/07/26 14:00:43;;;;;;;2.33;1.50;;;;;;;;;;5073858;28;20016;-59
2023/07/26 14:03:09;;;;;;;3.00;1.85;;;;;;;;;;5074024;28;20052;-59
2023/07/26 14:05:34;;;;;;;3.35;1.60;;;;;;;;;;5074425;28;20029;-59
2023/07/26 14:08:00;;;;;;;3.80;1.85;;;;;;;;;;5074681;28;20024;-59
2023/07/26 14:10:26;;;;;;;2.13;1.42;;;;;;;;;;5074094;28;20024;-59
2023/07/26 14:12:52;;;;;;;2.47;1.38;;;;;;;;;;5073963;28;20469;-59
2023/07/26 14:15:18;;;;;;;2.47;1.70;;;;;;;;;;5074245;28;20039;-59
2023/07/26 14:17:44;;;;;;;2.63;1.65;;;;;;;;;;5073476;28;20481;-59
2023/07/26 14:20:10;;;;;;;2.17;1.48;;;;;;;;;;5073648;28;20031;-59
2023/07/26 14:22:36;;;;;;;2.60;1.40;;;;;;;;;;5073620;28;20035;-59
2023/07/26 14:25:02;;;;;;;3.03;1.60;;;;;;;;;;5073737;28;20095;-59
2023/07/26 14:27:28;;;;;;;3.50;2.10;;;;;;;;;;5073177;28;20393;-59
2023/07/26 14:29:54;;;;;;;1.83;1.00;;;;;;;;;;5074100;28;20021;-59
2023/07/26 14:32:20;;;;;;;3.80;1.75;;;;;;;;;;5073583;28;20108;-59
2023/07/26 14:34:46;;;;;;;2.75;2.17;;;;;;;;;;5073507;28;20056;-59
2023/07/26 14:37:12;;;;;;;2.40;1.70;;;;;;;;;;5073546;28;20052;-59